Home > Products > Valid Products > MTR

000
SAUS44 KSHV 311357
MTRAQV
METAR KAQV 311356Z AUTO VRB03KT 10SM CLR 14/09 A3013 RMK AO2 SLP204
T01440094





000
SAUS44 KSHV 311355
MTRBKB
METAR KBKB 311354Z AUTO VRB04KT 10SM CLR 16/09 A3011 RMK AO2 SLP223
T01610089





000
SAUS44 KSHV 311257
MTRAQV
METAR KAQV 311256Z AUTO 00000KT 10SM CLR 11/09 A3011 RMK AO2 SLP196
T01060089





000
SAUS44 KSHV 311255
MTRBKB
METAR KBKB 311254Z AUTO 00000KT 10SM CLR 13/09 A3009 RMK AO2 SLP218
T01280089 $





000
SAUS44 KSHV 311157
MTRAQV
METAR KAQV 311156Z AUTO 00000KT 10SM CLR 11/09 A3009 RMK AO2 SLP188
T01060089 10117 20100 53010





000
SAUS44 KSHV 311155
MTRBKB
METAR KBKB 311154Z AUTO 00000KT 10SM CLR 13/09 A3007 RMK AO2 SLP212
T01330094 10200 20100 $





000
SAUS44 KSHV 311058
MTRAQV
METAR KAQV 311056Z AUTO 00000KT 10SM CLR 11/09 A3007 RMK AO2 SLP182
T01060089





000
SAUS44 KSHV 310957
MTRAQV
METAR KAQV 310956Z AUTO 00000KT 10SM CLR 11/09 A3005 RMK AO2 SLP175
T01060089





000
SAUS44 KSHV 310901 COR
MTRAQV
METAR KAQV 310856Z AUTO 00000KT 10SM CLR 11/09 A3005 RMK AO2 SLP176
T01060089 58008





000
SAUS44 KSHV 310857
MTRAQV
METAR KAQV 310856Z AUTO 00000KT 10SM CLR 11/09 A3005 RMK AO2 SLP176
T01060089 58008





000
SAUS44 KSHV 310757
MTRAQV
METAR KAQV 310756Z AUTO 00000KT 10SM CLR 11/09 A3006 RMK AO2 SLP180
T01060089





000
SAUS44 KSHV 310755
MTRBKB
METAR KBKB 310754Z AUTO 00000KT 10SM CLR 10/08 A3006 RMK AO2 SLP208
T01000078 $





000
SAUS44 KSHV 310657
MTRAQV
METAR KAQV 310656Z AUTO 00000KT 10SM CLR 10/08 A3007 RMK AO2 SLP183
T01000083





000
SAUS44 KSHV 310655
MTRBKB
METAR KBKB 310654Z AUTO 00000KT 10SM 11/09 A3006 RMK AO2 SLP210
T01110089 $





000
SAUS44 KSHV 310558
MTRAQV
METAR KAQV 310556Z AUTO 00000KT 10SM CLR 11/09 A3008 RMK AO2 SLP185
T01060094 10144 20106 402440072 50002





000
SAUS44 KSHV 310555
MTRBKB
METAR KBKB 310554Z AUTO 00000KT 10SM 11/08 A3007 RMK AO2 SLP212
T01060083 10200 20089 402220089 $





000
SAUS44 KSHV 310457
MTRAQV
METAR KAQV 310456Z AUTO 00000KT 10SM SCT075 11/09 A3008 RMK AO2
SLP186 T01110094





000
SAUS44 KSHV 310357
MTRAQV
METAR KAQV 310356Z AUTO 00000KT 10SM CLR 11/09 A3008 RMK AO2 SLP186
T01110094





000
SAUS44 KSHV 310357
MTRAQV
METAR KAQV 310356Z AUTO 00000KT 10SM CLR 11/09 A3008 RMK AO2 SLP186
T01110094





000
SAUS44 KSHV 310258
MTRAQV
METAR KAQV 310256Z AUTO 00000KT 10SM CLR 11/10 A3007 RMK AO2 SLP183
T01110100 50005





000
SAUS44 KSHV 310157
MTRAQV
METAR KAQV 310156Z AUTO 00000KT 10SM CLR 12/11 A3008 RMK AO2 SLP185
T01170106





000
SAUS44 KSHV 310057
MTRAQV
METAR KAQV 310056Z AUTO 00000KT 10SM CLR 13/11 A3006 RMK AO2 SLP181
T01280111





000
SAUS44 KSHV 302357
MTRAQV
METAR KAQV 302356Z AUTO 00000KT 10SM CLR 14/12 A3006 RMK AO2 SLP179
T01440122 10244 20144 53001





000
SAUS44 KSHV 302257
MTRAQV
METAR KAQV 302256Z AUTO 00000KT 10SM CLR 19/11 A3005 RMK AO2 SLP176
T01940106





000
SAUS44 KSHV 302158
MTRAQV
METAR KAQV 302156Z AUTO 35003KT 10SM CLR 24/06 A3005 RMK AO2 SLP176
T02390056





000
SAUS44 KSHV 302158
MTRAQV
METAR KAQV 302156Z AUTO 35003KT 10SM CLR 24/06 A3005 RMK AO2 SLP176
T02390056





000
SAUS44 KSHV 302057
MTRAQV
METAR KAQV 302056Z AUTO VRB03KT 10SM CLR 24/06 A3006 RMK AO2 SLP176
T02440056 56024





000
SAUS44 KSHV 301958
MTRAQV
METAR KAQV 301956Z AUTO 00000KT 10SM CLR 23/06 A3007 RMK AO2 SLP180
T02280056





000
SAUS44 KSHV 301857
MTRAQV
METAR KAQV 301856Z AUTO 00000KT 10SM CLR 23/06 A3010 RMK AO2 SLP190
T02280056





000
SAUS44 KSHV 301758
MTRAQV
METAR KAQV 301756Z AUTO 00000KT 10SM CLR 22/06 A3013 RMK AO2 SLP200
T02170056 10222 20072 58010





000
SAUS44 KSHV 301657
MTRAQV
METAR KAQV 301656Z AUTO VRB03KT 10SM CLR 21/07 A3016 RMK AO2 SLP211
T02060072





000
SAUS44 KSHV 301657
MTRAQV
METAR KAQV 301656Z AUTO VRB03KT 10SM CLR 21/07 A3016 RMK AO2 SLP211
T02060072





000
SAUS44 KSHV 301357
MTRAQV
METAR KAQV 301356Z AUTO 00000KT 10SM CLR 13/09 A3015 RMK AO2 SLP211
T01330094





000
SAUS44 KSHV 301331
MTRAQV
SPECI KAQV 301330Z AUTO 00000KT 5SM BR CLR 10/09 A3015 RMK AO2
T01000089





000
SAUS44 KSHV 301313
MTRAQV
SPECI KAQV 301311Z AUTO 00000KT 2SM BR CLR 08/07 A3014 RMK AO2
T00780067





000
SAUS44 KSHV 301257
MTRAQV
METAR KAQV 301256Z AUTO 00000KT 8SM CLR 07/06 A3013 RMK AO2 SLP204
T00720061





000
SAUS44 KSHV 301157
MTRAQV
METAR KAQV 301156Z AUTO 00000KT 10SM CLR 08/07 A3013 RMK AO2 SLP202
T00830067 10128 20083 53007





000
SAUS44 KSHV 301058
MTRAQV
METAR KAQV 301056Z AUTO 00000KT 10SM CLR 09/07 A3011 RMK AO2 SLP196
T00890072





000
SAUS44 KSHV 301058
MTRAQV
METAR KAQV 301056Z AUTO 00000KT 10SM CLR 09/07 A3011 RMK AO2 SLP196
T00890072





000
SAUS44 KSHV 300957
MTRAQV
METAR KAQV 300956Z AUTO 00000KT 10SM CLR 09/08 A3010 RMK AO2 SLP193
T00940078





000
SAUS44 KSHV 300858
MTRAQV
METAR KAQV 300856Z AUTO 00000KT 10SM CLR 10/08 A3011 RMK AO2 SLP194
T01000083 58003





000
SAUS44 KSHV 300757
MTRAQV
METAR KAQV 300756Z AUTO 00000KT 10SM CLR 11/08 A3011 RMK AO2 SLP195
T01110083





000
SAUS44 KSHV 300657
MTRAQV
METAR KAQV 300656Z AUTO 02003KT 10SM CLR 12/09 A3011 RMK AO2 SLP197
T01170089





000
SAUS44 KSHV 300557
MTRAQV
METAR KAQV 300556Z AUTO 00000KT 10SM CLR 13/09 A3011 RMK AO2 SLP197
T01280089 10167 20117 402390117 58004





000
SAUS44 KSHV 300457
MTRAQV
METAR KAQV 300456Z AUTO 04003KT 10SM CLR 12/09 A3012 RMK AO2 SLP200
T01220094





000
SAUS44 KSHV 300457
MTRAQV
METAR KAQV 300456Z AUTO 04003KT 10SM CLR 12/09 A3012 RMK AO2 SLP200
T01220094





000
SAUS44 KSHV 300357
MTRAQV
METAR KAQV 300356Z AUTO 00000KT 10SM CLR 12/10 A3013 RMK AO2 SLP201
T01220100





000
SAUS44 KSHV 300258
MTRAQV
METAR KAQV 300256Z AUTO 00000KT 10SM CLR 12/11 A3013 RMK AO2 SLP201
T01220106 51008





000
SAUS44 KSHV 300157
MTRAQV
METAR KAQV 300156Z AUTO 00000KT 10SM CLR 13/11 A3012 RMK AO2 SLP198
T01330111





000
SAUS44 KSHV 300058
MTRAQV
METAR KAQV 300056Z AUTO 02003KT 10SM CLR 15/11 A3011 RMK AO2 SLP195
T01500111





000
SAUS44 KSHV 292357
MTRAQV
METAR KAQV 292356Z AUTO 00000KT 10SM CLR 16/13 A3010 RMK AO2 SLP191
T01610128 10239 20161 53006





000
SAUS44 KSHV 292258
MTRAQV
METAR KAQV 292256Z AUTO 02003KT 10SM CLR 21/11 A3009 RMK AO2 SLP188
T02060111





000
SAUS44 KSHV 292157
MTRAQV
METAR KAQV 292156Z AUTO VRB04KT 10SM CLR 23/10 A3009 RMK AO2 SLP185
T02280100





000
SAUS44 KSHV 292057
MTRAQV
METAR KAQV 292056Z AUTO 01006KT 10SM FEW070 23/12 A3008 RMK AO2
SLP185 T02330117 56015





000
SAUS44 KSHV 291957
MTRAQV
METAR KAQV 291956Z AUTO 04007KT 350V070 10SM OVC060 23/14 A3009 RMK
AO2 SLP188 T02280139





000
SAUS44 KSHV 291907
MTRAQV
SPECI KAQV 291906Z AUTO 03009G14KT 10SM SCT028 BKN055 22/14 A3010
RMK AO2 T02170139





000
SAUS44 KSHV 291858
MTRAQV
METAR KAQV 291856Z AUTO 05006G15KT 10SM BKN028 BKN050 22/14 A3011
RMK AO2 SLP193 T02170139





000
SAUS44 KSHV 291843
MTRAQV
SPECI KAQV 291842Z AUTO VRB04KT 10SM SCT012 OVC027 21/15 A3012 RMK
AO2 T02110150





000
SAUS44 KSHV 291757
MTRAQV
METAR KAQV 291756Z AUTO 35006KT 10SM OVC010 19/16 A3013 RMK AO2
SLP200 T01940161 10194 20183 58005





000
SAUS44 KSHV 291746
MTRAQV
SPECI KAQV 291744Z AUTO 03007KT 010V070 10SM OVC010 19/16 A3013 RMK
AO2 T01890156





000
SAUS44 KSHV 291657
MTRAQV
METAR KAQV 291656Z AUTO 02005KT 10SM OVC007 19/17 A3014 RMK AO2 CIG
005V009 SLP205 T01940167





000
SAUS44 KSHV 291655
MTRAQV
SPECI KAQV 291654Z AUTO 03004KT 10SM OVC007 19/17 A3014 RMK AO2 CIG
004V009





000
SAUS44 KSHV 291635
MTRAQV
SPECI KAQV 291634Z AUTO 36007KT 9SM OVC004 19/17 A3015 RMK AO2
T01890167





000
SAUS44 KSHV 291635
MTRAQV
SPECI KAQV 291634Z AUTO 36007KT 9SM OVC004 19/17 A3015 RMK AO2
T01890167





000
SAUS44 KSHV 291600 COR
MTRAQV
METAR KAQV 291556Z AUTO VRB05KT 8SM OVC005 19/17 A3014 RMK AO2 CIG
003V007 SLP205 T01890167





000
SAUS44 KSHV 291559 COR
MTRAQV
METAR KAQV 291556Z AUTO VRB05KT 8SM OVC005 19/17 A3014 RMK AO2 CIG
003V007 SLP205 T01890167





000
SAUS44 KSHV 291558 COR
MTRAQV
METAR KAQV 291556Z AUTO VRB05KT 8SM OVC005 19/17 A3014 RMK AO2 CIG
003V007 SLP205 T01890167





000
SAUS44 KSHV 291557
MTRAQV
METAR KAQV 291556Z AUTO VRB05KT 8SM OVC005 19/17 A3014 RMK AO2 CIG
003V007 SLP205 T01890167





000
SAUS44 KSHV 291544
MTRAQV
SPECI KAQV 291543Z AUTO 01007KT 10SM OVC004 19/17 A3014 RMK AO2
T01890172





000
SAUS44 KSHV 291457
MTRAQV
METAR KAQV 291456Z AUTO VRB06KT 10SM OVC005 18/17 A3013 RMK AO2
SLP202 T01830172 51016





000
SAUS44 KSHV 291425
MTRAQV
SPECI KAQV 291424Z AUTO 01007KT 10SM BKN002 OVC007 19/18 A3012 RMK
AO2 T01890178





000
SAUS44 KSHV 291422 COR
MTRAQV
SPECI KAQV 291417Z AUTO 01008KT 2 1/2SM BR BKN002 OVC006 19/18 A3012
RMK AO2 T01890183





000
SAUS44 KSHV 291420 COR
MTRAQV
SPECI KAQV 291417Z AUTO 01008KT 2 1/2SM BR BKN002 OVC006 19/18 A3012
RMK AO2 T01890183





000
SAUS44 KSHV 291419 COR
MTRAQV
SPECI KAQV 291417Z AUTO 01008KT 2 1/2SM BR BKN002 OVC006 19/18 A3012
RMK AO2 T01890183





000
SAUS44 KSHV 291418
MTRAQV
SPECI KAQV 291417Z AUTO 01008KT 2 1/2SM BR BKN002 OVC006 19/18 A3012
RMK AO2 T01890183





000
SAUS44 KSHV 291358
MTRAQV
METAR KAQV 291356Z AUTO 01006KT 3/4SM BR VV002 19/19 A3012 RMK AO2
SLP196 T01940189





000
SAUS44 KSHV 291355
MTRAQV
SPECI KAQV 291353Z AUTO 01004KT 1 1/4SM BR OVC002 19/19 A3011 RMK
AO2





000
SAUS44 KSHV 291258
MTRAQV
METAR KAQV 291256Z AUTO 36004KT 1/4SM FG VV002 19/19 A3009 RMK AO2
SLP186 T01940189





000
SAUS44 KSHV 291216
MTRAQV
SPECI KAQV 291215Z AUTO 35006KT 3/4SM BR OVC002 19/18 A3007 RMK AO2
T01940183





000
SAUS44 KSHV 291205
MTRAQV
SPECI KAQV 291204Z AUTO VRB04KT 1 1/4SM BR OVC002 19/19 A3007 RMK
AO2 T01940189





000
SAUS44 KSHV 291157
MTRAQV
METAR KAQV 291156Z AUTO 36006KT 2 1/2SM BR OVC002 19/19 A3007 RMK
AO2 SLP180 T01940189 10211 20183 53006





000
SAUS44 KSHV 291129
MTRAQV
SPECI KAQV 291128Z AUTO 36005KT 3SM BR OVC002 20/19 A3006 RMK AO2
T02000189





000
SAUS44 KSHV 291123
MTRAQV
SPECI KAQV 291121Z AUTO VRB05KT 2 1/2SM BR OVC002 20/19 A3006 RMK
AO2 T02000189





000
SAUS44 KSHV 291114
MTRAQV
SPECI KAQV 291112Z AUTO VRB03KT 1 3/4SM BR OVC002 20/19 A3006 RMK
AO2 T02000194





000
SAUS44 KSHV 291057
MTRAQV
METAR KAQV 291056Z AUTO 00000KT 4SM BR OVC003 21/19 A3006 RMK AO2
SLP176 T02060194





000
SAUS44 KSHV 291047
MTRAQV
SPECI KAQV 291046Z AUTO 00000KT 4SM BR BKN003 OVC080 21/19 A3006 RMK
AO2 T02060194





000
SAUS44 KSHV 291047
MTRAQV
SPECI KAQV 291046Z AUTO 00000KT 4SM BR BKN003 OVC080 21/19 A3006 RMK
AO2 T02060194





000
SAUS44 KSHV 291038
MTRAQV
SPECI KAQV 291036Z AUTO 00000KT 5SM BR SCT004 OVC080 21/19 A3006 RMK
AO2 T02060194





000
SAUS44 KSHV 291038
MTRAQV
SPECI KAQV 291036Z AUTO 00000KT 5SM BR SCT004 OVC080 21/19 A3006 RMK
AO2 T02060194





000
SAUS44 KSHV 290957
MTRAQV
METAR KAQV 290956Z AUTO 00000KT 6SM BR OVC070 21/19 A3005 RMK AO2
SLP172 T02060194





000
SAUS44 KSHV 290857
MTRAQV
METAR KAQV 290856Z AUTO 00000KT 6SM BR FEW002 OVC065 21/19 A3005 RMK
AO2 SLP173 T02060194 53002





000
SAUS44 KSHV 290853
MTRAQV
SPECI KAQV 290852Z AUTO 00000KT 6SM BR SCT002 OVC065 21/19 A3005 RMK
AO2





000
SAUS44 KSHV 290835
MTRAQV
SPECI KAQV 290834Z AUTO 00000KT 3SM BR OVC002 21/19 A3005 RMK AO2
T02060194





000
SAUS44 KSHV 290823
MTRAQV
SPECI KAQV 290821Z AUTO 22003KT 1 1/4SM BR OVC002 21/20 A3005 RMK
AO2 T02060200





000
SAUS44 KSHV 290758
MTRAQV
METAR KAQV 290756Z AUTO 20004KT 3/4SM BR VV002 21/20 A3004 RMK AO2
SLP170 T02110200





000
SAUS44 KSHV 290745 COR
MTRAQV
SPECI KAQV 290740Z AUTO 20003KT 3/4SM BR OVC003 21/20 A3004 RMK AO2
T02110200





000
SAUS44 KSHV 290743 COR
MTRAQV
SPECI KAQV 290740Z AUTO 20003KT 3/4SM BR OVC003 21/20 A3004 RMK AO2
T02110200





000
SAUS44 KSHV 290742 COR
MTRAQV
SPECI KAQV 290740Z AUTO 20003KT 3/4SM BR OVC003 21/20 A3004 RMK AO2
T02110200





000
SAUS44 KSHV 290741
MTRAQV
SPECI KAQV 290740Z AUTO 20003KT 3/4SM BR OVC003 21/20 A3004 RMK AO2
T02110200





000
SAUS44 KSHV 290734 COR
MTRAQV
SPECI KAQV 290728Z AUTO 22003KT 1 3/4SM BR OVC004 21/20 A3004 RMK
AO2 T02110200





000
SAUS44 KSHV 290731 COR
MTRAQV
SPECI KAQV 290728Z AUTO 22003KT 1 3/4SM BR OVC004 21/20 A3004 RMK
AO2 T02110200





000
SAUS44 KSHV 290730
MTRAQV
SPECI KAQV 290728Z AUTO 22003KT 1 3/4SM BR OVC004 21/20 A3004 RMK
AO2 T02110200





000
SAUS44 KSHV 290730 COR
MTRAQV
SPECI KAQV 290728Z AUTO 22003KT 1 3/4SM BR OVC004 21/20 A3004 RMK
AO2 T02110200





000
SAUS44 KSHV 290722
MTRAQV
SPECI KAQV 290721Z AUTO VRB03KT 5SM BR OVC004 21/20 A3004 RMK AO2
T02060200





000
SAUS44 KSHV 290657
MTRAQV
METAR KAQV 290656Z AUTO 00000KT 6SM BR BKN006 20/19 A3005 RMK AO2
SLP171 T02000194





000
SAUS44 KSHV 290618
MTRAQV
SPECI KAQV 290617Z AUTO 00000KT 4SM BR CLR 19/18 A3005 RMK AO2
T01890178





000
SAUS44 KSHV 290615 COR
MTRAQV
SPECI KAQV 290610Z AUTO 00000KT 2 1/2SM BR CLR 19/18 A3005 RMK AO2
T01890178





000
SAUS44 KSHV 290613 COR
MTRAQV
SPECI KAQV 290610Z AUTO 00000KT 2 1/2SM BR CLR 19/18 A3005 RMK AO2
T01890178





000
SAUS44 KSHV 290612
MTRAQV
SPECI KAQV 290610Z AUTO 00000KT 2 1/2SM BR CLR 19/18 A3005 RMK AO2
T01890178





000
SAUS44 KSHV 290612 COR
MTRAQV
SPECI KAQV 290610Z AUTO 00000KT 2 1/2SM BR CLR 19/18 A3005 RMK AO2
T01890178





000
SAUS44 KSHV 290558
MTRAQV
METAR KAQV 290556Z AUTO 00000KT 1 3/4SM BR CLR 18/18 A3004 RMK AO2
SLP171 T01830178 10228 20183 402720183 50000





000
SAUS44 KSHV 290555
MTRAQV
SPECI KAQV 290554Z AUTO 00000KT 1 3/4SM BR CLR 19/18 A3004 RMK AO2





000
SAUS44 KSHV 290457
MTRAQV
METAR KAQV 290456Z AUTO 00000KT 4SM BR CLR 19/18 A3006 RMK AO2
SLP175 T01940183





000
SAUS44 KSHV 290357
MTRAQV
METAR KAQV 290356Z AUTO 00000KT 3SM BR OVC080 19/19 A3005 RMK AO2
SLP175 T01940189





000
SAUS44 KSHV 290257
MTRAQV
METAR KAQV 290256Z AUTO 00000KT 6SM BR FEW044 BKN070 21/19 A3004 RMK
AO2 SLP171 T02060194 53011





000
SAUS44 KSHV 290241 COR
MTRAQV
SPECI KAQV 290237Z AUTO 00000KT 4SM BR FEW006 FEW044 21/19 A3004 RMK
AO2 T02060194





000
SAUS44 KSHV 290240 COR
MTRAQV
SPECI KAQV 290237Z AUTO 00000KT 4SM BR FEW006 FEW044 21/19 A3004 RMK
AO2 T02060194





000
SAUS44 KSHV 290239 COR
MTRAQV
SPECI KAQV 290237Z AUTO 00000KT 4SM BR FEW006 FEW044 21/19 A3004 RMK
AO2 T02060194





000
SAUS44 KSHV 290238
MTRAQV
SPECI KAQV 290237Z AUTO 00000KT 4SM BR FEW006 FEW044 21/19 A3004 RMK
AO2 T02060194





000
SAUS44 KSHV 290157
MTRAQV
METAR KAQV 290156Z AUTO 00000KT 3SM BR SCT043 21/19 A3003 RMK AO2
SLP167 T02060194





000
SAUS44 KSHV 290150
MTRAQV
SPECI KAQV 290148Z AUTO 00000KT 3SM BR BKN043 21/20 A3003 RMK AO2
T02110200





000
SAUS44 KSHV 290150
MTRAQV
SPECI KAQV 290148Z AUTO 00000KT 3SM BR BKN043 21/20 A3003 RMK AO2
T02110200





000
SAUS44 KSHV 290144
MTRAQV
SPECI KAQV 290143Z AUTO 00000KT 1 1/2SM BR BKN043 21/20 A3003 RMK
AO2 T02060200





000
SAUS44 KSHV 290144
MTRAQV
SPECI KAQV 290143Z AUTO 00000KT 1 1/2SM BR BKN043 21/20 A3003 RMK
AO2 T02060200





000
SAUS44 KSHV 290133
MTRAQV
SPECI KAQV 290132Z AUTO 00000KT 3/4SM BR FEW040 21/19 A3003 RMK AO2
T02060194





000
SAUS44 KSHV 290133
MTRAQV
SPECI KAQV 290132Z AUTO 00000KT 3/4SM BR FEW040 21/19 A3003 RMK AO2
T02060194





000
SAUS44 KSHV 290113
MTRAQV
SPECI KAQV 290111Z AUTO 00000KT 1 3/4SM BR CLR 21/20 A3002 RMK AO2
T02110200





000
SAUS44 KSHV 290109 COR
MTRAQV
SPECI KAQV 290104Z AUTO 00000KT 3SM BR FEW006 21/20 A3003 RMK AO2
T02110200





000
SAUS44 KSHV 290107 COR
MTRAQV
SPECI KAQV 290104Z AUTO 00000KT 3SM BR FEW006 21/20 A3003 RMK AO2
T02110200





000
SAUS44 KSHV 290106 COR
MTRAQV
SPECI KAQV 290104Z AUTO 00000KT 3SM BR FEW006 21/20 A3003 RMK AO2
T02110200





000
SAUS44 KSHV 290105
MTRAQV
SPECI KAQV 290104Z AUTO 00000KT 3SM BR FEW006 21/20 A3003 RMK AO2
T02110200





000
SAUS44 KSHV 290058
MTRAQV
METAR KAQV 290056Z AUTO 00000KT 3SM BR CLR 22/20 A3003 RMK AO2
SLP165 T02170200





000
SAUS44 KSHV 290046
MTRAQV
SPECI KAQV 290045Z AUTO 00000KT 4SM BR FEW006 22/21 A3002 RMK AO2
T02170206





000
SAUS44 KSHV 282359
MTRAQV
METAR KAQV 282356Z AUTO 00000KT 6SM BR FEW065 23/21 A3001 RMK AO2
SLP160 T02280211 10272 20228 53006





000
SAUS44 KSHV 282258
MTRAQV
METAR KAQV 282256Z AUTO 00000KT 10SM FEW065 25/22 A3000 RMK AO2
SLP157 T02500217





000
SAUS44 KSHV 282157
MTRAQV
METAR KAQV 282156Z AUTO 00000KT 10SM BKN060 26/20 A3000 RMK AO2
SLP156 T02610200





000
SAUS44 KSHV 282059
MTRAQV
METAR KAQV 282056Z AUTO 00000KT 10SM CLR 26/20 A2999 RMK AO2 SLP154
T02610200 56011





000
SAUS44 KSHV 281957
MTRAQV
METAR KAQV 281956Z AUTO 18005KT 10SM FEW025 26/19 A2999 RMK AO2
SLP154 T02610194





000
SAUS44 KSHV 281857
MTRAQV
METAR KAQV 281856Z AUTO 18004KT 10SM FEW021 26/19 A3001 RMK AO2
SLP158 T02610194





000
SAUS44 KSHV 281757
MTRAQV
METAR KAQV 281756Z AUTO VRB04KT 10SM FEW015 26/21 A3003 RMK AO2
SLP165 60000 T02560206 10256 20200 58009





000
SAUS44 KSHV 281657
MTRAQV
METAR KAQV 281656Z AUTO 19005KT 10SM FEW008 24/21 A3005 RMK AO2
SLP174 T02390211





000
SAUS44 KSHV 281657
MTRAQV
METAR KAQV 281656Z AUTO 19005KT 10SM FEW008 24/21 A3005 RMK AO2
SLP174 T02390211





000
SAUS44 KSHV 281655
MTRBKB
METAR KBKB 281654Z AUTO 00000KT 9SM -RA SCT055 BKN070 OVC085 24/21
A3005 RMK AO2 RAB08 SLP202 P0002 T02390211





000
SAUS44 KSHV 281655
MTRBKB
METAR KBKB 281654Z AUTO 00000KT 9SM -RA SCT055 BKN070 OVC085 24/21
A3005 RMK AO2 RAB08 SLP202 P0002 T02390211





000
SAUS44 KSHV 281624
MTRBKB
SPECI KBKB 281622Z AUTO 00000KT 5SM -RA SCT013 BKN047 OVC065 24/21
A3006 RMK AO2 RAB08 P0002 T02390211





000
SAUS44 KSHV 281605
MTRBKB
SPECI KBKB 281604Z AUTO 00000KT 10SM BKN013 OVC035 24/20 A3007 RMK
AO2 T02440200





000
SAUS44 KSHV 281557
MTRAQV
METAR KAQV 281556Z AUTO 18003KT 6SM BR FEW003 BKN085 22/21 A3007 RMK
AO2 SLP179 T02170206





000
SAUS44 KSHV 281557
MTRAQV
METAR KAQV 281556Z AUTO 18003KT 6SM BR FEW003 BKN085 22/21 A3007 RMK
AO2 SLP179 T02170206





000
SAUS44 KSHV 281556
MTRBKB
METAR KBKB 281554Z AUTO VRB03KT 10SM BKN015 BKN035 OVC060 24/20
A3007 RMK AO2 SLP207 T02440200





000
SAUS44 KSHV 281556
MTRBKB
METAR KBKB 281554Z AUTO VRB03KT 10SM BKN015 BKN035 OVC060 24/20
A3007 RMK AO2 SLP207 T02440200





000
SAUS44 KSHV 281547 COR
MTRAQV
SPECI KAQV 281543Z AUTO 17004KT 4SM BR FEW003 BKN070 OVC085 22/21
A3006 RMK AO2 T02170206





000
SAUS44 KSHV 281547 COR
MTRAQV
SPECI KAQV 281543Z AUTO 17004KT 4SM BR FEW003 BKN070 OVC085 22/21
A3006 RMK AO2 T02170206





000
SAUS44 KSHV 281546 COR
MTRAQV
SPECI KAQV 281543Z AUTO 17004KT 4SM BR FEW003 BKN070 OVC085 22/21
A3006 RMK AO2 T02170206





000
SAUS44 KSHV 281546 COR
MTRAQV
SPECI KAQV 281543Z AUTO 17004KT 4SM BR FEW003 BKN070 OVC085 22/21
A3006 RMK AO2 T02170206





000
SAUS44 KSHV 281545
MTRAQV
SPECI KAQV 281543Z AUTO 17004KT 4SM BR FEW003 BKN070 OVC085 22/21
A3006 RMK AO2 T02170206





000
SAUS44 KSHV 281545
MTRAQV
SPECI KAQV 281543Z AUTO 17004KT 4SM BR FEW003 BKN070 OVC085 22/21
A3006 RMK AO2 T02170206





000
SAUS44 KSHV 281535
MTRBKB
SPECI KBKB 281529Z AUTO VRB03KT 10SM SCT009 BKN035 OVC060 25/20
A3006 RMK AO2 T02500200





000
SAUS44 KSHV 281500
MTRAQV
METAR KAQV 281456Z AUTO 00000KT 3SM BR BKN003 OVC060 21/21 A3005 RMK
AO2 RAB17E34 SLP176 P0000 60000 T02110206 51011





000
SAUS44 KSHV 281439
MTRAQV
SPECI KAQV 281438Z AUTO 00000KT 3SM BR FEW005 BKN060 OVC080 21/20
A3005 RMK AO2 RAB17E34 P0000 T02110200





000
SAUS44 KSHV 281428
MTRAQV
SPECI KAQV 281427Z AUTO 00000KT 2 1/2SM -RA BR FEW003 BKN050 OVC070
21/20 A3005 RMK AO2 RAB17 P0000 T02110200





000
SAUS44 KSHV 281423
MTRAQV
SPECI KAQV 281419Z AUTO 00000KT 2 1/2SM -RA BR FEW003 BKN016 OVC050
21/20 A3005 RMK AO2 RAB17 P0000 T02110200





    US Dept of Commerce
    National Oceanic and Atmospheric Administration
    National Weather Service
    1325 East West Highway
    Silver Spring, MD 20910
    Page Author: NWS Internet Services Team
Disclaimer
Information Quality
Credits
Glossary
Privacy Policy
Freedom of Information Act (FOIA)
About Us
Career Opportunities